Time;durP1;ratioP1;P1;durP2;ratioP2;P2;SDS_P1;SDS_P2;PMS_P1;PMS_P2;Temp;Humidity;BMP_temperature;BMP_pressure;BME280_temperature;BME280_humidity;BME280_pressure;Samples;Min_cycle;Max_cycle;Signal;HPM_P1;HPM_P2
2021/11/30 00:01:23;;;;;;;5.80;3.03;;;;;;;8.30;52.98;101579.81;4155026;28;19922;-48
2021/11/30 00:03:25;;;;;;;;;;;;;;;8.37;53.24;101583.22;4155111;28;20042;-51
2021/11/30 00:05:27;;;;;;;6.27;2.83;;;;;;;8.33;53.24;101579.75;4144094;28;19918;-49
2021/11/30 00:07:29;;;;;;;6.80;3.00;;;;;;;8.29;53.12;101575.47;4155115;28;20688;-53
2021/11/30 00:11:37;;;;;;;6.70;3.20;;;;;;;8.35;53.18;101582.34;4154818;28;20046;-52
2021/11/30 00:13:40;;;;;;;6.90;3.00;;;;;;;8.35;53.12;101574.50;4154852;28;20379;-52
2021/11/30 00:15:43;;;;;;;5.18;2.72;;;;;;;8.25;53.10;101560.63;4154602;28;20118;-51
2021/11/30 00:17:45;;;;;;;5.05;2.55;;;;;;;8.35;53.20;101575.38;4157342;28;20054;-51
2021/11/30 00:19:49;;;;;;;8.00;3.30;;;;;;;8.36;53.20;101571.00;4157619;28;20109;-51
2021/11/30 00:21:51;;;;;;;7.88;3.03;;;;;;;8.27;53.17;101561.50;4157741;28;20065;-59
2021/11/30 00:23:53;;;;;;;5.55;2.60;;;;;;;8.32;53.30;101565.81;4157450;28;20050;-52
2021/11/30 00:25:55;;;;;;;6.15;2.97;;;;;;;8.35;52.96;101575.38;4157761;28;20124;-52
2021/11/30 00:27:58;;;;;;;6.35;2.72;;;;;;;8.36;52.94;101571.00;4157771;28;20346;-51
2021/11/30 00:30:00;;;;;;;6.45;3.10;;;;;;;8.36;53.24;101571.00;4157295;28;20117;-49
2021/11/30 00:32:04;;;;;;;5.82;2.88;;;;;;;8.34;53.09;101572.78;4157735;28;20148;-52
2021/11/30 00:34:06;;;;;;;5.90;2.80;;;;;;;8.35;53.15;101572.75;4157367;28;20238;-49
2021/11/30 00:36:08;;;;;;;5.97;2.95;;;;;;;8.31;53.02;101566.69;4157380;28;20054;-48
2021/11/30 00:38:14;;;;;;;5.05;2.70;;;;;;;8.28;52.80;101558.84;4157638;28;20109;-51
2021/11/30 00:40:16;;;;;;;5.85;2.65;;;;;;;8.35;53.11;101561.38;4157369;28;20068;-51
2021/11/30 00:42:21;;;;;;;6.53;2.90;;;;;;;8.34;52.94;101555.28;4157175;28;20101;-49
2021/11/30 00:44:29;;;;;;;5.00;2.53;;;;;;;8.35;53.23;101562.28;4157143;28;20045;-49
2021/11/30 00:46:36;;;;;;;6.90;2.92;;;;;;;8.32;52.86;101550.09;4156931;28;20038;-50
2021/11/30 00:48:39;;;;;;;5.47;2.90;;;;;;;8.30;53.17;101545.75;4157448;28;20200;-51
2021/11/30 00:50:45;;;;;;;6.55;3.03;;;;;;;8.21;53.11;101530.97;4157153;28;20413;-53
2021/11/30 00:52:48;;;;;;;4.88;2.60;;;;;;;8.32;53.02;101552.69;4157187;28;20346;-52
2021/11/30 00:54:50;;;;;;;5.38;2.63;;;;;;;8.26;52.96;101539.69;4157014;28;20109;-49
2021/11/30 00:56:53;;;;;;;5.13;2.70;;;;;;;8.34;53.05;101554.44;4157090;28;20111;-49
2021/11/30 00:58:55;;;;;;;4.97;2.42;;;;;;;8.34;52.88;101554.44;4157271;28;20429;-48
2021/11/30 01:00:58;;;;;;;5.00;2.60;;;;;;;8.35;53.12;101566.63;4156823;28;20129;-48
2021/11/30 01:03:00;;;;;;;;;;;;;;;8.34;53.18;101552.69;4157547;28;20049;-51
2021/11/30 01:05:05;;;;;;;6.03;2.42;;;;;;;8.34;53.31;101555.28;4157028;28;20104;-49
2021/11/30 01:07:10;;;;;;;4.55;2.50;;;;;;;8.33;53.24;101540.44;4157064;28;20123;-51
2021/11/30 01:09:12;;;;;;;5.78;2.67;;;;;;;8.33;53.04;101543.06;4157105;28;20053;-50
2021/11/30 01:11:14;;;;;;;5.45;2.70;;;;;;;8.34;53.29;101543.97;4156936;28;20046;-49
2021/11/30 01:13:17;;;;;;;5.78;2.70;;;;;;;8.35;53.20;101548.28;4156959;28;20112;-49
2021/11/30 01:15:20;;;;;;;6.63;2.90;;;;;;;8.34;53.22;101538.72;4156474;28;20060;-46
2021/11/30 01:17:23;;;;;;;7.10;2.65;;;;;;;8.34;53.22;101541.34;4156549;28;20056;-51
2021/11/30 01:19:25;;;;;;;5.90;2.47;;;;;;;8.34;53.11;101543.97;4156829;28;20109;-49
2021/11/30 01:21:28;;;;;;;5.65;2.70;;;;;;;8.32;53.14;101534.34;4156569;28;20052;-48
2021/11/30 01:23:30;;;;;;;;;;;;;;;8.34;53.27;101541.34;4157322;28;20105;-51
2021/11/30 01:25:34;;;;;;;;;;;;;;;8.32;53.06;101531.72;4157081;28;19924;-48
2021/11/30 01:27:37;;;;;;;5.25;2.60;;;;;;;8.31;53.33;101535.25;4155792;28;19955;-48
2021/11/30 01:29:40;;;;;;;6.00;2.65;;;;;;;8.31;53.19;101529.09;4156166;28;20107;-51
2021/11/30 01:31:41;;;;;;;;;;;;;;;8.33;53.15;101529.97;4156968;28;20144;-52
2021/11/30 01:33:44;;;;;;;5.20;2.28;;;;;;;8.32;53.17;101531.72;4156678;28;19924;-50
2021/11/30 01:35:47;;;;;;;5.53;2.20;;;;;;;8.28;53.18;101518.69;4156429;28;20069;-52
2021/11/30 01:37:50;;;;;;;5.38;2.17;;;;;;;8.31;53.19;101511.66;4156171;28;20069;-51
2021/11/30 01:39:52;;;;;;;5.53;2.40;;;;;;;8.33;53.38;101524.72;4156498;28;20113;-49
2021/11/30 01:41:55;;;;;;;4.40;2.30;;;;;;;8.31;53.06;101522.13;4156503;28;20046;-51
2021/11/30 01:43:59;;;;;;;5.78;2.30;;;;;;;8.26;53.22;101505.59;4156433;28;20109;-52
2021/11/30 01:50:11;;;;;;;5.93;2.38;;;;;;;8.24;53.29;101512.63;4156355;28;20056;-52
2021/11/30 01:52:14;;;;;;;5.50;2.67;;;;;;;8.31;53.29;101518.63;4156022;28;20053;-49
2021/11/30 01:54:16;;;;;;;5.45;2.25;;;;;;;8.32;53.18;101525.59;4156462;28;20079;-50
2021/11/30 01:56:19;;;;;;;4.50;2.20;;;;;;;8.32;53.43;101526.50;4156236;28;20103;-49
2021/11/30 01:58:22;;;;;;;4.85;2.38;;;;;;;8.35;53.27;101516.84;4156164;28;20117;-51
2021/11/30 02:00:24;;;;;;;;;;;;;;;8.35;53.25;101519.44;4156779;28;20116;-52
2021/11/30 02:02:26;;;;;;;4.78;2.25;;;;;;;8.29;53.42;101502.94;4156222;28;19918;-52
2021/11/30 02:04:30;;;;;;;7.55;2.60;;;;;;;8.35;53.31;101508.97;4156356;28;20112;-48
2021/11/30 02:06:32;;;;;;;5.43;2.33;;;;;;;8.33;53.18;101506.38;4156291;28;20087;-49
2021/11/30 02:08:35;;;;;;;5.70;2.33;;;;;;;8.34;53.26;101507.25;4156028;28;20050;-48
2021/11/30 02:10:38;;;;;;;4.07;2.13;;;;;;;8.34;53.64;101502.88;4155974;28;20321;-49
2021/11/30 02:12:42;;;;;;;5.85;2.30;;;;;;;8.36;53.43;101500.22;4156000;28;20045;-49
2021/11/30 02:14:46;;;;;;;4.38;2.20;;;;;;;8.22;53.31;101489.94;4155663;28;20126;-49
2021/11/30 02:16:48;;;;;;;4.63;2.38;;;;;;;8.36;53.50;101502.84;4155936;28;20105;-51
2021/11/30 02:18:52;;;;;;;4.47;2.38;;;;;;;8.33;53.36;101498.50;4155822;28;20105;-51
2021/11/30 02:20:59;;;;;;;5.47;2.47;;;;;;;8.34;53.43;101475.81;4155701;28;20045;-51
2021/11/30 02:23:01;;;;;;;4.40;2.15;;;;;;;8.34;53.35;101476.66;4155756;28;20068;-49
2021/11/30 02:25:04;;;;;;;;;;;;;;;8.36;53.23;101477.53;4156343;28;20049;-52
2021/11/30 02:27:06;;;;;;;4.15;2.17;;;;;;;8.28;53.29;101464.50;4155797;28;19984;-50
2021/11/30 02:29:09;;;;;;;;;;;;;;;8.35;53.49;101475.78;4155945;28;20046;-50
2021/11/30 02:31:12;;;;;;;;;;;;;;;8.35;53.63;101482.75;4156102;28;19955;-51
2021/11/30 02:33:14;;;;;;;6.70;2.50;;;;;;;8.35;53.28;101480.13;4155515;28;19923;-50
2021/11/30 02:35:16;;;;;;;5.18;2.47;;;;;;;8.34;53.26;101475.81;4155516;28;20045;-49
2021/11/30 02:37:24;;;;;;;;;;;;;;;8.35;53.40;101478.41;4155999;28;20490;-51
2021/11/30 02:39:26;;;;;;;5.60;2.33;;;;;;;8.16;53.65;101446.34;4155236;28;19917;-48
2021/11/30 02:41:28;;;;;;;5.55;2.50;;;;;;;8.29;53.29;101471.47;4155655;28;20140;-47
2021/11/30 02:43:30;;;;;;;5.00;2.20;;;;;;;8.36;53.71;101476.63;4155599;28;20110;-52
2021/11/30 02:45:32;;;;;;;4.85;2.80;;;;;;;8.35;53.50;101465.31;4155597;28;20069;-48
2021/11/30 02:47:35;;;;;;;5.60;2.50;;;;;;;8.35;53.42;101462.69;4155442;28;20334;-51
2021/11/30 02:49:40;;;;;;;5.35;2.33;;;;;;;8.36;53.29;101472.28;4155242;28;20084;-48
2021/11/30 02:51:46;;;;;;;5.70;2.78;;;;;;;8.34;53.36;101475.81;4155579;28;20050;-51
2021/11/30 02:53:48;;;;;;;5.88;2.42;;;;;;;8.29;53.61;101465.38;4155292;28;20076;-50
2021/11/30 02:55:50;;;;;;;5.03;2.17;;;;;;;8.36;53.32;101480.13;4155325;28;20109;-51
2021/11/30 02:57:52;;;;;;;6.38;2.30;;;;;;;8.37;53.42;101481.00;4155372;28;20103;-52
2021/11/30 02:59:55;;;;;;;6.65;2.60;;;;;;;8.34;53.63;101468.81;4155274;28;20117;-53
2021/11/30 03:02:07;;;;;;;4.43;2.35;;;;;;;8.36;53.35;101482.75;4155571;28;20077;-48
2021/11/30 03:04:11;;;;;;;5.13;2.33;;;;;;;8.37;53.55;101481.88;4155186;28;20140;-47
2021/11/30 03:06:13;;;;;;;6.15;2.70;;;;;;;8.36;53.59;101479.25;4155225;28;20103;-51
2021/11/30 03:08:15;;;;;;;5.93;2.35;;;;;;;8.37;53.50;101478.38;4155301;28;20053;-51
2021/11/30 03:10:19;;;;;;;4.72;2.53;;;;;;;8.37;53.51;101475.75;4155155;28;20109;-52
2021/11/30 03:12:22;;;;;;;5.07;2.53;;;;;;;8.35;53.53;101473.16;4155493;28;20050;-52
2021/11/30 03:14:27;;;;;;;6.07;2.90;;;;;;;8.38;53.69;101473.09;4155278;28;20280;-53
2021/11/30 03:16:31;;;;;;;4.85;2.30;;;;;;;8.37;53.62;101481.88;4155225;28;20275;-49
2021/11/30 03:18:36;;;;;;;4.88;2.58;;;;;;;8.38;53.60;101474.88;4155159;28;20105;-49
2021/11/30 03:20:38;;;;;;;5.95;2.40;;;;;;;8.34;53.70;101468.81;4155247;28;20306;-51
2021/11/30 03:22:40;;;;;;;4.70;2.47;;;;;;;8.34;53.42;101471.41;4155369;28;20168;-49
2021/11/30 03:24:42;;;;;;;4.72;2.17;;;;;;;8.36;53.42;101472.28;4155296;28;20057;-52
2021/11/30 03:26:44;;;;;;;;;;;;;;;8.38;53.52;101482.72;4155587;28;20053;-49
2021/11/30 03:28:47;;;;;;;5.28;2.20;;;;;;;8.37;53.63;101476.63;4155259;28;20147;-47
2021/11/30 03:30:56;;;;;;;;;;;;;;;8.37;53.86;101479.25;4155614;28;20088;-49
2021/11/30 03:35:19;;;;;;;5.63;2.38;;;;;;;8.37;53.69;101484.50;4155041;28;20169;-50
2021/11/30 03:37:21;;;;;;;5.45;2.47;;;;;;;8.31;53.56;101477.56;4155147;28;20118;-49
2021/11/30 03:39:26;;;;;;;4.95;2.35;;;;;;;8.35;53.46;101488.00;4155250;28;20256;-52
2021/11/30 03:41:31;;;;;;;5.10;2.30;;;;;;;8.32;53.67;101473.19;4154803;28;20046;-52
2021/11/30 03:43:33;;;;;;;5.82;2.42;;;;;;;8.38;53.65;101485.34;4155148;28;20133;-48
2021/11/30 03:45:35;;;;;;;;;;;;;;;8.37;53.54;101486.22;4155444;28;20057;-51
2021/11/30 03:47:37;;;;;;;5.20;2.53;;;;;;;8.28;53.55;101472.38;4154992;28;19918;-49
2021/11/30 03:49:39;;;;;;;5.10;2.20;;;;;;;8.36;53.63;101481.88;4155122;28;20393;-54
2021/11/30 03:51:42;;;;;;;6.07;2.65;;;;;;;8.35;53.67;101494.13;4155912;28;20539;-52
2021/11/30 03:53:44;;;;;;;6.07;2.60;;;;;;;8.37;53.61;101494.97;4158145;28;20088;-52
2021/11/30 03:55:46;;;;;;;5.40;2.25;;;;;;;8.37;53.79;101497.59;4158014;28;20049;-48
2021/11/30 03:57:48;;;;;;;4.57;2.28;;;;;;;8.25;53.72;101476.78;4157995;28;20120;-50
2021/11/30 03:59:50;;;;;;;4.97;2.47;;;;;;;8.35;53.67;101486.25;4157892;28;20382;-51
2021/11/30 04:01:53;;;;;;;5.22;2.60;;;;;;;8.39;53.55;101502.81;4157961;28;20238;-50
2021/11/30 04:03:56;;;;;;;;;;;;;;;8.38;53.77;101499.31;4158349;28;20046;-52
2021/11/30 04:05:58;;;;;;;4.93;2.55;;;;;;;8.38;53.84;101498.47;4157876;28;19944;-49
2021/11/30 04:08:00;;;;;;;4.30;2.40;;;;;;;8.39;53.56;101494.94;4157906;28;20153;-49
2021/11/30 04:10:03;;;;;;;;;;;;;;;8.39;53.80;101493.19;4158434;28;20129;-51
2021/11/30 04:12:07;;;;;;;4.63;2.30;;;;;;;8.36;53.65;101468.78;4157747;28;20035;-48
2021/11/30 04:14:09;;;;;;;5.18;2.30;;;;;;;8.39;53.75;101476.59;4157562;28;20296;-48
2021/11/30 04:16:11;;;;;;;5.55;2.50;;;;;;;8.36;53.77;101476.63;4157878;28;20049;-57
2021/11/30 04:18:14;;;;;;;5.15;2.47;;;;;;;8.39;53.76;101479.22;4157856;28;20466;-50
2021/11/30 04:20:17;;;;;;;4.63;2.40;;;;;;;8.37;53.55;101476.63;4141536;28;20331;-51
2021/11/30 04:22:19;;;;;;;4.65;2.05;;;;;;;8.39;53.61;101472.22;4148876;28;20046;-49
2021/11/30 04:24:21;;;;;;;7.97;2.70;;;;;;;8.38;53.70;101469.63;4157589;28;20113;-51
2021/11/30 04:26:24;;;;;;;5.30;2.60;;;;;;;8.39;53.70;101466.97;4157731;28;20080;-50
2021/11/30 04:28:26;;;;;;;;;;;;;;;8.40;53.74;101467.84;4157675;28;20056;-51
2021/11/30 04:30:28;;;;;;;;;;;;;;;8.40;53.97;101470.47;4157936;28;19917;-51
2021/11/30 04:32:30;;;;;;;5.22;2.53;;;;;;;8.38;53.77;101465.25;4157319;28;20257;-52
2021/11/30 04:34:33;;;;;;;5.82;2.50;;;;;;;8.39;53.82;101466.13;4157670;28;20105;-52
2021/11/30 04:36:35;;;;;;;;;;;;;;;8.40;54.11;101473.94;4157967;28;20113;-50
2021/11/30 04:38:38;;;;;;;4.38;2.38;;;;;;;8.37;53.72;101462.66;4157283;28;19918;-51
2021/11/30 04:40:40;;;;;;;6.00;2.60;;;;;;;8.39;54.10;101471.38;4157334;28;20057;-50
2021/11/30 04:42:45;;;;;;;4.57;2.33;;;;;;;8.40;53.73;101473.94;4157322;28;20501;-54
2021/11/30 04:45:02;;;;;;;4.75;2.63;;;;;;;8.39;53.83;101472.22;4146826;28;20046;-51
2021/11/30 04:47:10;;;;;;;4.68;2.38;;;;;;;8.37;53.95;101465.25;4157409;28;20377;-51
2021/11/30 04:49:14;;;;;;;4.93;2.83;;;;;;;8.33;54.02;101459.19;4157168;28;20054;-49
2021/11/30 04:51:17;;;;;;;5.45;2.28;;;;;;;8.40;53.66;101468.72;4141174;28;20113;-48
2021/11/30 04:53:21;;;;;;;4.80;2.47;;;;;;;8.42;54.06;101466.06;4147931;28;20038;-52
2021/11/30 04:55:30;;;;;;;4.53;2.30;;;;;;;8.37;54.00;101463.53;4157244;28;20066;-53
2021/11/30 04:57:32;;;;;;;4.97;2.63;;;;;;;8.39;54.10;101469.59;4157171;28;20050;-53
2021/11/30 04:59:34;;;;;;;5.80;2.60;;;;;;;8.42;53.79;101476.53;4156760;28;20065;-52
2021/11/30 05:01:36;;;;;;;;;;;;;;;8.42;54.11;101479.16;4157644;28;20072;-51
2021/11/30 05:03:38;;;;;;;5.13;2.25;;;;;;;8.40;53.97;101478.34;4156871;28;19947;-51
2021/11/30 05:05:41;;;;;;;5.50;2.28;;;;;;;8.41;53.84;101477.47;4156976;28;20046;-51
2021/11/30 05:07:43;;;;;;;5.97;2.53;;;;;;;8.40;54.14;101476.56;4156945;28;20121;-49
2021/11/30 05:09:45;;;;;;;5.57;2.40;;;;;;;8.41;54.00;101462.59;4156665;28;20133;-48
2021/11/30 05:11:48;;;;;;;6.60;2.72;;;;;;;8.36;53.96;101463.53;4156899;28;20105;-50
2021/11/30 05:13:50;;;;;;;5.35;2.65;;;;;;;8.42;54.15;101468.69;4156811;28;20105;-52
2021/11/30 05:15:52;;;;;;;5.43;2.45;;;;;;;8.36;54.35;101456.56;4156660;28;20166;-50
2021/11/30 05:17:54;;;;;;;4.20;2.30;;;;;;;8.40;54.33;101460.84;4156701;28;20046;-51
2021/11/30 05:19:56;;;;;;;;;;;;;;;8.42;54.41;101466.94;4157196;28;20112;-52
2021/11/30 05:21:58;;;;;;;5.00;2.42;;;;;;;8.34;54.14;101437.34;4156790;28;19947;-51
2021/11/30 05:24:05;;;;;;;5.50;2.67;;;;;;;8.35;54.29;101443.44;4156612;28;20046;-52
2021/11/30 05:26:08;;;;;;;4.43;2.10;;;;;;;8.41;54.01;101446.84;4156742;28;20084;-50
2021/11/30 05:28:11;;;;;;;5.55;2.72;;;;;;;8.42;54.06;101447.72;4156737;28;20054;-49
2021/11/30 05:30:15;;;;;;;5.15;2.22;;;;;;;8.35;54.24;101428.59;4156301;28;20087;-50
2021/11/30 05:32:18;;;;;;;5.45;2.63;;;;;;;8.42;54.10;101440.72;4156734;28;20046;-47
2021/11/30 05:34:21;;;;;;;4.75;2.50;;;;;;;8.40;54.25;101431.16;4156427;28;20054;-52
2021/11/30 05:36:23;;;;;;;4.75;2.30;;;;;;;8.43;54.09;101441.59;4156572;28;20050;-55
2021/11/30 05:38:25;;;;;;;;;;;;;;;8.41;54.42;101436.38;4156990;28;20060;-51
2021/11/30 05:40:27;;;;;;;5.70;2.38;;;;;;;8.41;54.39;101444.25;4156122;28;20114;-51
2021/11/30 05:42:29;;;;;;;5.05;2.25;;;;;;;8.42;54.17;101451.22;4156544;28;20113;-50
2021/11/30 05:44:32;;;;;;;3.95;2.15;;;;;;;8.35;54.24;101433.84;4156326;28;20045;-51
2021/11/30 05:46:36;;;;;;;6.28;2.40;;;;;;;8.37;54.14;101437.31;4156272;28;20041;-52
2021/11/30 05:48:39;;;;;;;4.93;2.47;;;;;;;8.41;54.41;101433.75;4156260;28;20097;-52
2021/11/30 05:50:41;;;;;;;;;;;;;;;8.41;54.80;101440.75;4156537;28;20438;-50
2021/11/30 05:52:43;;;;;;;4.78;2.13;;;;;;;8.40;54.56;101439.03;4156353;28;19917;-52
2021/11/30 05:54:46;;;;;;;5.00;2.42;;;;;;;8.40;54.61;101446.88;4156206;28;20356;-54
2021/11/30 05:56:48;;;;;;;4.03;2.15;;;;;;;8.39;54.70;101440.75;4156260;28;20109;-53
2021/11/30 05:58:50;;;;;;;4.93;2.25;;;;;;;8.41;54.45;101441.63;4156341;28;20068;-51
2021/11/30 06:00:52;;;;;;;4.75;2.20;;;;;;;8.41;54.42;101443.38;4155940;28;20376;-50
2021/11/30 06:05:03;;;;;;;4.32;2.20;;;;;;;8.28;54.74;101413.84;4156167;28;20109;-52
2021/11/30 06:07:06;;;;;;;4.28;2.28;;;;;;;8.41;54.51;101430.28;4155864;28;20050;-52
2021/11/30 06:09:09;;;;;;;4.95;2.30;;;;;;;8.37;54.53;101429.47;4156214;28;20326;-52
2021/11/30 06:11:12;;;;;;;5.40;2.22;;;;;;;8.41;54.88;101441.63;4155951;28;20062;-53
2021/11/30 06:13:14;;;;;;;4.65;2.22;;;;;;;8.42;54.50;101435.50;4155839;28;20045;-52
2021/11/30 06:15:16;;;;;;;4.53;2.13;;;;;;;8.42;54.88;101437.22;4155087;28;20113;-55
2021/11/30 06:17:18;;;;;;;4.63;2.30;;;;;;;8.40;54.70;101434.63;4155813;28;20056;-52
2021/11/30 06:19:20;;;;;;;4.78;2.40;;;;;;;8.40;54.63;101434.63;4155978;28;20057;-50
2021/11/30 06:21:23;;;;;;;;;;;;;;;8.42;54.62;101432.88;4156119;28;20050;-51
2021/11/30 06:23:25;;;;;;;;;;;;;;;8.42;54.81;101443.34;4156350;28;19980;-50
2021/11/30 06:25:28;;;;;;;3.83;2.08;;;;;;;8.42;54.58;101432.88;4155983;28;20225;-48
2021/11/30 06:27:30;;;;;;;5.25;2.28;;;;;;;8.44;54.89;101438.06;4155528;28;20050;-50
2021/11/30 06:29:32;;;;;;;;;;;;;;;8.44;54.90;101443.31;4156107;28;20133;-54
2021/11/30 06:31:34;;;;;;;5.80;2.50;;;;;;;8.43;54.59;101428.47;4155703;28;20032;-52
2021/11/30 06:33:37;;;;;;;5.53;2.78;;;;;;;8.43;54.86;101439.84;4155681;28;20101;-49
2021/11/30 06:35:39;;;;;;;;;;;;;;;8.42;55.15;101452.94;4156212;28;20159;-49
2021/11/30 06:37:41;;;;;;;4.22;1.92;;;;;;;8.42;55.28;101445.97;4155418;28;19954;-52
2021/11/30 06:39:43;;;;;;;4.57;2.35;;;;;;;8.42;54.79;101453.84;4155671;28;20464;-53
2021/11/30 06:41:45;;;;;;;6.25;2.75;;;;;;;8.34;54.92;101434.72;4155307;28;20065;-50
2021/11/30 06:43:47;;;;;;;5.72;2.20;;;;;;;8.37;54.99;101429.47;4155666;28;20108;-52
2021/11/30 06:45:49;;;;;;;3.63;1.85;;;;;;;8.44;54.68;101432.84;4155613;28;20327;-54
2021/11/30 06:47:51;;;;;;;4.53;2.20;;;;;;;8.40;54.70;101423.31;4155454;28;20095;-48
2021/11/30 06:49:54;;;;;;;5.15;2.22;;;;;;;8.45;54.92;101430.19;4155482;28;20097;-52
2021/11/30 06:51:56;;;;;;;4.68;2.30;;;;;;;8.45;55.12;101431.94;4155313;28;20370;-55
2021/11/30 06:53:58;;;;;;;4.50;2.15;;;;;;;8.44;54.75;101420.59;4155365;28;20261;-50
2021/11/30 06:56:01;;;;;;;7.00;2.38;;;;;;;8.45;54.94;101429.34;4155394;28;20116;-50
2021/11/30 06:58:03;;;;;;;5.35;2.13;;;;;;;8.43;55.07;101428.47;4155244;28;20105;-48
2021/11/30 07:00:08;;;;;;;4.55;2.00;;;;;;;8.45;55.02;101422.31;4155328;28;20148;-52
2021/11/30 07:02:12;;;;;;;4.30;2.00;;;;;;;8.43;54.97;101424.13;4155294;28;20045;-50
2021/11/30 07:04:14;;;;;;;4.45;2.22;;;;;;;8.43;54.82;101431.97;4155405;28;20104;-54
2021/11/30 07:08:48;;;;;;;4.25;2.05;;;;;;;8.40;55.08;101418.06;4155303;28;20053;-54
2021/11/30 07:10:52;;;;;;;5.72;2.50;;;;;;;8.45;54.97;101429.34;4155333;28;20049;-52
2021/11/30 07:13:05;;;;;;;5.18;2.28;;;;;;;8.46;54.99;101426.72;4155008;28;20106;-50
2021/11/30 07:15:09;;;;;;;5.50;2.38;;;;;;;8.47;54.87;101438.94;4155035;28;20194;-50
2021/11/30 07:17:11;;;;;;;4.30;1.90;;;;;;;8.47;55.23;101438.06;4155298;28;20185;-49
2021/11/30 07:19:13;;;;;;;4.50;2.22;;;;;;;8.44;54.83;101432.84;4155023;28;20113;-52
2021/11/30 07:21:16;;;;;;;3.85;2.00;;;;;;;8.47;54.85;101441.56;4155371;28;20093;-51
2021/11/30 07:23:18;;;;;;;4.97;2.25;;;;;;;8.44;54.99;101436.31;4155138;28;20050;-51
2021/11/30 07:25:20;;;;;;;4.20;1.90;;;;;;;8.47;55.31;101443.31;4155106;28;20343;-53
2021/11/30 07:27:23;;;;;;;4.18;2.10;;;;;;;8.46;55.19;101441.56;4156652;28;20152;-50
2021/11/30 07:29:25;;;;;;;;;;;;;;;8.48;55.23;101439.78;4158664;28;20106;-51
2021/11/30 07:31:27;;;;;;;4.40;2.00;;;;;;;8.44;54.92;101438.06;4158317;28;19985;-49
2021/11/30 07:33:36;;;;;;;4.70;2.20;;;;;;;8.48;54.90;101445.03;4158323;28;20049;-51
2021/11/30 07:35:39;;;;;;;3.95;1.90;;;;;;;8.49;54.85;101451.16;4155093;28;20052;-50
2021/11/30 07:37:42;;;;;;;5.20;2.47;;;;;;;8.46;55.24;101442.44;4158366;28;20060;-50
2021/11/30 07:39:44;;;;;;;4.38;2.03;;;;;;;8.45;54.97;101437.19;4158140;28;20057;-50
2021/11/30 07:41:46;;;;;;;4.70;2.25;;;;;;;8.49;55.08;101449.38;4158523;28;20101;-50
2021/11/30 07:43:48;;;;;;;4.65;2.15;;;;;;;8.49;55.51;101449.38;4158102;28;20061;-50
2021/11/30 07:45:51;;;;;;;4.55;2.30;;;;;;;8.50;55.61;101450.28;4153711;28;20073;-51
2021/11/30 07:47:54;;;;;;;4.57;2.45;;;;;;;8.50;56.12;101451.13;4149979;28;20045;-47
2021/11/30 07:49:57;;;;;;;6.20;3.03;;;;;;;8.49;56.24;101443.28;4152483;28;20049;-50
2021/11/30 07:52:00;;;;;;;5.60;2.58;;;;;;;8.54;56.17;101449.31;4152332;28;20322;-50
2021/11/30 07:54:02;;;;;;;6.88;3.35;;;;;;;8.53;57.20;101447.59;4152230;28;20041;-53
2021/11/30 07:56:04;;;;;;;5.78;3.20;;;;;;;8.56;57.28;101444.94;4152378;28;20318;-49
2021/11/30 07:58:07;;;;;;;;;;;;;;;8.60;57.31;101457.97;4150257;28;20069;-50
2021/11/30 08:00:15;;;;;;;8.20;3.72;;;;;;;8.56;57.03;101450.16;4155181;28;20083;-51
2021/11/30 08:02:17;;;;;;;7.55;3.15;;;;;;;8.62;57.27;101453.56;4152299;28;20069;-48
2021/11/30 08:04:20;;;;;;;;;;;;;;;8.67;56.97;101466.59;4152852;28;20046;-48
2021/11/30 08:06:22;;;;;;;5.90;3.30;;;;;;;8.65;57.04;101457.03;4154159;28;20142;-48
2021/11/30 08:08:24;;;;;;;9.07;3.25;;;;;;;8.61;57.30;101459.69;4153625;28;20049;-48
2021/11/30 08:10:28;;;;;;;7.68;3.30;;;;;;;8.66;57.18;101464.00;4157360;28;20114;-48
2021/11/30 08:12:30;;;;;;;10.10;3.45;;;;;;;8.68;57.68;101462.22;4152979;28;20334;-48
2021/11/30 08:14:33;;;;;;;7.22;3.67;;;;;;;8.72;57.37;101461.28;4155700;28;20054;-52
2021/11/30 08:16:35;;;;;;;8.35;3.60;;;;;;;8.75;57.45;101464.72;4155502;28;20053;-47
2021/11/30 08:18:39;;;;;;;6.53;3.15;;;;;;;8.78;57.36;101462.06;4157242;28;20216;-52
2021/11/30 08:20:41;;;;;;;8.45;3.95;;;;;;;8.80;57.74;101462.03;4157056;28;20054;-54
2021/11/30 08:22:43;;;;;;;6.88;3.42;;;;;;;8.79;57.63;101455.06;4157381;28;20061;-53
2021/11/30 08:24:45;;;;;;;7.50;3.35;;;;;;;8.91;57.66;101467.09;4157037;28;20112;-53
2021/11/30 08:26:47;;;;;;;;;;;;;;;8.94;57.57;101470.53;4155649;28;20042;-52
2021/11/30 08:28:49;;;;;;;7.72;4.05;;;;;;;8.94;57.39;101453.91;4162263;28;20004;-53
2021/11/30 08:30:51;;;;;;;;;;;;;;;9.02;57.59;101466.94;4154032;28;20248;-51
2021/11/30 08:32:54;;;;;;;7.70;3.55;;;;;;;9.07;57.99;101476.44;4156867;28;19964;-50
2021/11/30 08:34:58;;;;;;;8.35;3.72;;;;;;;9.14;57.38;101468.44;4157128;28;20050;-50
2021/11/30 08:37:00;;;;;;;8.38;3.88;;;;;;;9.17;57.45;101461.41;4156467;28;20415;-49
2021/11/30 08:39:03;;;;;;;8.85;4.00;;;;;;;9.22;57.58;101471.81;4155732;28;20109;-51
2021/11/30 08:41:05;;;;;;;10.43;4.25;;;;;;;9.23;57.57;101470.94;4155258;28;20042;-50
2021/11/30 08:43:09;;;;;;;11.05;4.20;;;;;;;9.29;57.60;101464.72;4155446;28;20081;-55
2021/11/30 08:45:12;;;;;;;9.85;3.88;;;;;;;9.26;57.30;101460.38;4152667;28;20109;-51
2021/11/30 08:47:17;;;;;;;7.40;3.75;;;;;;;9.34;57.48;101465.47;4151042;28;20332;-55
2021/11/30 08:49:19;;;;;;;8.75;3.70;;;;;;;9.39;57.78;101464.50;4156380;28;20064;-54
2021/11/30 08:51:28;;;;;;;7.25;3.75;;;;;;;9.47;58.37;101461.72;4159649;28;20064;-49
2021/11/30 08:53:34;;;;;;;;;;;;;;;9.52;57.59;101464.28;4152801;28;20114;-51
2021/11/30 08:55:36;;;;;;;9.30;4.03;;;;;;;9.50;57.63;101459.06;4149472;28;19953;-51
2021/11/30 08:57:39;;;;;;;10.73;4.47;;;;;;;9.52;57.43;101459.88;4155124;28;20666;-51
2021/11/30 08:59:42;;;;;;;7.20;4.07;;;;;;;9.55;57.28;101462.47;4162499;28;20117;-51
2021/11/30 09:01:46;;;;;;;9.15;4.05;;;;;;;9.53;57.26;101455.50;4154114;28;20113;-49
2021/11/30 09:03:48;;;;;;;9.65;4.28;;;;;;;9.59;57.05;101458.88;4149719;28;20570;-50
2021/11/30 09:05:56;;;;;;;8.43;4.25;;;;;;;9.59;57.02;101452.75;4156139;28;20105;-49
2021/11/30 09:07:58;;;;;;;7.53;4.43;;;;;;;9.60;57.19;101454.50;4156861;28;20353;-49
2021/11/30 09:10:01;;;;;;;6.82;3.70;;;;;;;9.56;56.98;101444.94;4157148;28;20050;-52
2021/11/30 09:12:05;;;;;;;7.40;4.20;;;;;;;9.66;56.90;101461.38;4159780;28;20042;-51
2021/11/30 09:14:08;;;;;;;8.18;4.35;;;;;;;9.69;57.21;101463.94;4156700;28;20109;-50
2021/11/30 09:16:10;;;;;;;7.15;4.30;;;;;;;9.70;56.93;101466.53;4156889;28;20160;-52
2021/11/30 09:18:12;;;;;;;7.75;4.68;;;;;;;9.69;57.28;101456.91;4156694;28;20073;-49
2021/11/30 09:20:15;;;;;;;;;;;;;;;9.74;56.86;101475.22;4141399;28;20057;-46
2021/11/30 09:22:17;;;;;;;9.32;4.00;;;;;;;9.75;57.28;101472.56;4155748;28;19917;-46
2021/11/30 09:24:20;;;;;;;13.02;4.20;;;;;;;9.64;57.06;101453.53;4156603;28;20130;-50
2021/11/30 09:26:22;;;;;;;9.93;4.35;;;;;;;9.79;57.00;101462.84;4156741;28;20202;-49
2021/11/30 09:28:25;;;;;;;9.73;4.53;;;;;;;9.76;56.85;101462.94;4156293;28;20101;-53
2021/11/30 09:30:28;;;;;;;11.15;4.70;;;;;;;9.83;57.08;101459.28;4155824;28;20077;-50
2021/11/30 09:32:31;;;;;;;8.85;4.72;;;;;;;9.84;57.44;101458.41;4148009;28;20050;-47
2021/11/30 09:34:39;;;;;;;10.75;5.22;;;;;;;9.84;57.13;101460.13;4156475;28;20377;-57
2021/11/30 09:36:43;;;;;;;9.65;4.90;;;;;;;9.88;57.11;101465.31;4156486;28;20109;-48
2021/11/30 09:38:46;;;;;;;12.48;5.15;;;;;;;9.89;57.55;101461.78;4156331;28;20052;-55
2021/11/30 09:40:50;;;;;;;;;;;;;;;9.92;57.99;101463.47;4157042;28;20421;-52
2021/11/30 09:43:09;;;;;;;12.55;5.22;;;;;;;9.93;57.91;101456.44;4156170;28;19917;-49
2021/11/30 09:45:13;;;;;;;17.88;5.97;;;;;;;9.93;57.97;101462.59;4156574;28;20069;-50
2021/11/30 09:47:15;;;;;;;20.05;5.50;;;;;;;9.91;58.25;101464.38;4156208;28;20129;-51
2021/11/30 09:49:18;;;;;;;;;;;;;;;9.94;58.33;101469.56;4146666;28;20042;-45
2021/11/30 09:51:21;;;;;;;10.52;5.63;;;;;;;9.93;58.16;101467.84;4156285;28;20295;-46
2021/11/30 09:53:24;;;;;;;10.75;5.65;;;;;;;9.93;57.82;101466.97;4152793;28;20110;-49
2021/11/30 09:55:26;;;;;;;11.07;5.50;;;;;;;9.99;58.23;101465.09;4156416;28;20065;-47
2021/11/30 09:57:30;;;;;;;12.63;5.72;;;;;;;9.99;58.15;101469.44;4152551;28;20207;-47
2021/11/30 09:59:32;;;;;;;10.10;6.00;;;;;;;10.02;58.06;101467.63;4155617;28;20310;-50